sensor_id;sensor_type;location;lat;lon;timestamp;P1;durP1;ratioP1;P2;durP2;ratioP2
41709;SDS011;59402;48.396;-4.472;2023-04-25T00:01:20;9.43;;;2.63;;
41709;SDS011;59402;48.396;-4.472;2023-04-25T00:03:47;8.60;;;2.53;;
41709;SDS011;59402;48.396;-4.472;2023-04-25T00:06:13;11.00;;;3.08;;
41709;SDS011;59402;48.396;-4.472;2023-04-25T00:08:39;9.00;;;2.75;;
41709;SDS011;59402;48.396;-4.472;2023-04-25T00:11:05;10.05;;;3.20;;
41709;SDS011;59402;48.396;-4.472;2023-04-25T00:13:31;10.45;;;3.55;;
41709;SDS011;59402;48.396;-4.472;2023-04-25T00:15:57;11.10;;;3.08;;
41709;SDS011;59402;48.396;-4.472;2023-04-25T00:18:23;10.93;;;3.17;;
41709;SDS011;59402;48.396;-4.472;2023-04-25T00:20:49;9.82;;;3.72;;
41709;SDS011;59402;48.396;-4.472;2023-04-25T00:23:15;8.45;;;3.63;;
41709;SDS011;59402;48.396;-4.472;2023-04-25T00:25:43;7.38;;;2.70;;
41709;SDS011;59402;48.396;-4.472;2023-04-25T00:28:10;8.30;;;3.13;;
41709;SDS011;59402;48.396;-4.472;2023-04-25T00:30:36;7.73;;;3.27;;
41709;SDS011;59402;48.396;-4.472;2023-04-25T00:33:03;9.45;;;3.85;;
41709;SDS011;59402;48.396;-4.472;2023-04-25T00:35:28;10.27;;;3.28;;
41709;SDS011;59402;48.396;-4.472;2023-04-25T00:37:54;11.93;;;3.55;;
41709;SDS011;59402;48.396;-4.472;2023-04-25T00:40:20;9.88;;;3.05;;
41709;SDS011;59402;48.396;-4.472;2023-04-25T00:42:46;8.75;;;3.60;;
41709;SDS011;59402;48.396;-4.472;2023-04-25T00:45:13;10.02;;;3.50;;
41709;SDS011;59402;48.396;-4.472;2023-04-25T00:50:06;9.30;;;3.28;;
41709;SDS011;59402;48.396;-4.472;2023-04-25T00:52:32;9.23;;;3.08;;
41709;SDS011;59402;48.396;-4.472;2023-04-25T00:54:58;7.18;;;3.20;;
41709;SDS011;59402;48.396;-4.472;2023-04-25T00:57:24;9.40;;;3.22;;
41709;SDS011;59402;48.396;-4.472;2023-04-25T00:59:51;13.48;;;3.33;;
41709;SDS011;59402;48.396;-4.472;2023-04-25T01:02:17;10.52;;;3.70;;
41709;SDS011;59402;48.396;-4.472;2023-04-25T01:04:43;10.32;;;3.67;;
41709;SDS011;59402;48.396;-4.472;2023-04-25T01:07:10;11.85;;;4.10;;
41709;SDS011;59402;48.396;-4.472;2023-04-25T01:09:35;12.10;;;4.45;;
41709;SDS011;59402;48.396;-4.472;2023-04-25T01:12:02;10.57;;;4.60;;
41709;SDS011;59402;48.396;-4.472;2023-04-25T01:14:28;12.00;;;4.57;;
41709;SDS011;59402;48.396;-4.472;2023-04-25T01:16:55;11.40;;;4.20;;
41709;SDS011;59402;48.396;-4.472;2023-04-25T01:19:20;9.27;;;4.18;;
41709;SDS011;59402;48.396;-4.472;2023-04-25T01:21:46;11.20;;;4.05;;
41709;SDS011;59402;48.396;-4.472;2023-04-25T01:24:12;8.88;;;4.05;;
41709;SDS011;59402;48.396;-4.472;2023-04-25T01:26:39;10.70;;;4.10;;
41709;SDS011;59402;48.396;-4.472;2023-04-25T01:29:09;11.77;;;3.97;;
41709;SDS011;59402;48.396;-4.472;2023-04-25T01:31:35;11.63;;;4.15;;
41709;SDS011;59402;48.396;-4.472;2023-04-25T01:34:02;12.60;;;4.22;;
41709;SDS011;59402;48.396;-4.472;2023-04-25T01:36:28;13.52;;;4.35;;
41709;SDS011;59402;48.396;-4.472;2023-04-25T01:38:54;11.05;;;4.32;;
41709;SDS011;59402;48.396;-4.472;2023-04-25T01:41:21;14.48;;;4.63;;
41709;SDS011;59402;48.396;-4.472;2023-04-25T01:43:48;12.15;;;4.65;;
41709;SDS011;59402;48.396;-4.472;2023-04-25T01:46:14;11.30;;;4.40;;
41709;SDS011;59402;48.396;-4.472;2023-04-25T01:48:40;16.27;;;4.53;;
41709;SDS011;59402;48.396;-4.472;2023-04-25T01:51:06;10.13;;;4.07;;
41709;SDS011;59402;48.396;-4.472;2023-04-25T01:53:31;10.13;;;3.90;;
41709;SDS011;59402;48.396;-4.472;2023-04-25T01:55:59;9.98;;;4.43;;
41709;SDS011;59402;48.396;-4.472;2023-04-25T01:58:28;10.98;;;4.45;;
41709;SDS011;59402;48.396;-4.472;2023-04-25T02:01:00;8.10;;;3.90;;
41709;SDS011;59402;48.396;-4.472;2023-04-25T02:03:32;8.93;;;4.03;;
41709;SDS011;59402;48.396;-4.472;2023-04-25T02:06:00;11.27;;;4.22;;
41709;SDS011;59402;48.396;-4.472;2023-04-25T02:08:27;8.93;;;3.73;;
41709;SDS011;59402;48.396;-4.472;2023-04-25T02:10:54;9.60;;;3.90;;
41709;SDS011;59402;48.396;-4.472;2023-04-25T02:13:20;12.95;;;4.30;;
41709;SDS011;59402;48.396;-4.472;2023-04-25T02:16:08;10.02;;;4.28;;
41709;SDS011;59402;48.396;-4.472;2023-04-25T02:18:37;7.47;;;3.70;;
41709;SDS011;59402;48.396;-4.472;2023-04-25T02:21:06;10.45;;;4.28;;
41709;SDS011;59402;48.396;-4.472;2023-04-25T02:23:31;8.45;;;4.20;;
41709;SDS011;59402;48.396;-4.472;2023-04-25T02:25:58;13.35;;;4.20;;
41709;SDS011;59402;48.396;-4.472;2023-04-25T02:28:24;12.88;;;4.90;;
41709;SDS011;59402;48.396;-4.472;2023-04-25T02:30:51;11.00;;;4.32;;
41709;SDS011;59402;48.396;-4.472;2023-04-25T02:33:17;12.05;;;4.82;;
41709;SDS011;59402;48.396;-4.472;2023-04-25T02:35:43;10.02;;;4.57;;
41709;SDS011;59402;48.396;-4.472;2023-04-25T02:38:08;12.77;;;4.78;;
41709;SDS011;59402;48.396;-4.472;2023-04-25T02:40:34;13.00;;;5.22;;
41709;SDS011;59402;48.396;-4.472;2023-04-25T02:43:00;11.38;;;4.75;;
41709;SDS011;59402;48.396;-4.472;2023-04-25T02:45:26;11.13;;;4.65;;
41709;SDS011;59402;48.396;-4.472;2023-04-25T02:47:51;10.95;;;4.28;;
41709;SDS011;59402;48.396;-4.472;2023-04-25T02:50:18;10.38;;;4.85;;
41709;SDS011;59402;48.396;-4.472;2023-04-25T02:52:44;13.30;;;5.65;;
41709;SDS011;59402;48.396;-4.472;2023-04-25T02:55:18;10.18;;;5.40;;
41709;SDS011;59402;48.396;-4.472;2023-04-25T02:57:44;12.10;;;5.30;;
41709;SDS011;59402;48.396;-4.472;2023-04-25T03:00:13;11.55;;;5.28;;
41709;SDS011;59402;48.396;-4.472;2023-04-25T03:02:40;11.32;;;5.45;;
41709;SDS011;59402;48.396;-4.472;2023-04-25T03:05:05;8.38;;;4.45;;
41709;SDS011;59402;48.396;-4.472;2023-04-25T03:07:32;11.75;;;4.80;;
41709;SDS011;59402;48.396;-4.472;2023-04-25T03:09:58;13.13;;;4.72;;
41709;SDS011;59402;48.396;-4.472;2023-04-25T03:12:25;10.80;;;5.00;;
41709;SDS011;59402;48.396;-4.472;2023-04-25T03:14:50;8.93;;;4.97;;
41709;SDS011;59402;48.396;-4.472;2023-04-25T03:17:16;9.35;;;4.40;;
41709;SDS011;59402;48.396;-4.472;2023-04-25T03:19:42;12.65;;;4.35;;
41709;SDS011;59402;48.396;-4.472;2023-04-25T03:22:08;10.30;;;4.13;;
41709;SDS011;59402;48.396;-4.472;2023-04-25T03:24:34;12.98;;;4.55;;
41709;SDS011;59402;48.396;-4.472;2023-04-25T03:27:00;10.93;;;4.22;;
41709;SDS011;59402;48.396;-4.472;2023-04-25T03:29:26;10.13;;;4.47;;
41709;SDS011;59402;48.396;-4.472;2023-04-25T03:31:54;14.43;;;5.05;;
41709;SDS011;59402;48.396;-4.472;2023-04-25T03:34:20;11.95;;;4.25;;
41709;SDS011;59402;48.396;-4.472;2023-04-25T03:36:46;7.03;;;3.92;;
41709;SDS011;59402;48.396;-4.472;2023-04-25T03:39:13;9.15;;;4.25;;
41709;SDS011;59402;48.396;-4.472;2023-04-25T03:41:42;11.85;;;4.28;;
41709;SDS011;59402;48.396;-4.472;2023-04-25T03:44:12;9.07;;;4.13;;
41709;SDS011;59402;48.396;-4.472;2023-04-25T03:46:38;9.02;;;4.28;;
41709;SDS011;59402;48.396;-4.472;2023-04-25T03:49:04;10.55;;;3.83;;
41709;SDS011;59402;48.396;-4.472;2023-04-25T03:51:50;11.35;;;4.20;;
41709;SDS011;59402;48.396;-4.472;2023-04-25T03:54:16;7.50;;;4.30;;
41709;SDS011;59402;48.396;-4.472;2023-04-25T03:56:55;7.60;;;4.00;;
41709;SDS011;59402;48.396;-4.472;2023-04-25T03:59:24;10.57;;;4.28;;
41709;SDS011;59402;48.396;-4.472;2023-04-25T04:01:51;7.90;;;3.97;;
41709;SDS011;59402;48.396;-4.472;2023-04-25T04:04:17;12.43;;;4.10;;
41709;SDS011;59402;48.396;-4.472;2023-04-25T04:06:43;12.68;;;4.43;;
41709;SDS011;59402;48.396;-4.472;2023-04-25T04:09:20;11.30;;;4.35;;
41709;SDS011;59402;48.396;-4.472;2023-04-25T04:11:46;8.35;;;3.85;;
41709;SDS011;59402;48.396;-4.472;2023-04-25T04:14:12;11.35;;;4.70;;
41709;SDS011;59402;48.396;-4.472;2023-04-25T04:16:42;10.45;;;3.85;;
41709;SDS011;59402;48.396;-4.472;2023-04-25T04:19:08;8.80;;;3.92;;
41709;SDS011;59402;48.396;-4.472;2023-04-25T04:21:35;8.70;;;4.00;;
41709;SDS011;59402;48.396;-4.472;2023-04-25T04:24:02;8.03;;;3.73;;
41709;SDS011;59402;48.396;-4.472;2023-04-25T04:26:33;7.25;;;3.55;;
41709;SDS011;59402;48.396;-4.472;2023-04-25T04:29:22;7.68;;;3.58;;
41709;SDS011;59402;48.396;-4.472;2023-04-25T04:32:01;8.00;;;3.58;;
41709;SDS011;59402;48.396;-4.472;2023-04-25T04:34:28;7.90;;;3.47;;
41709;SDS011;59402;48.396;-4.472;2023-04-25T04:36:54;8.20;;;3.75;;
41709;SDS011;59402;48.396;-4.472;2023-04-25T04:39:20;8.82;;;3.80;;
41709;SDS011;59402;48.396;-4.472;2023-04-25T04:42:12;8.18;;;4.10;;
41709;SDS011;59402;48.396;-4.472;2023-04-25T04:44:50;7.68;;;3.60;;
41709;SDS011;59402;48.396;-4.472;2023-04-25T04:47:46;8.85;;;3.60;;
41709;SDS011;59402;48.396;-4.472;2023-04-25T04:50:43;7.63;;;2.90;;
41709;SDS011;59402;48.396;-4.472;2023-04-25T04:53:29;9.43;;;3.85;;
41709;SDS011;59402;48.396;-4.472;2023-04-25T04:55:55;9.10;;;4.10;;
41709;SDS011;59402;48.396;-4.472;2023-04-25T04:58:28;7.45;;;3.70;;
41709;SDS011;59402;48.396;-4.472;2023-04-25T05:01:17;7.35;;;3.78;;
41709;SDS011;59402;48.396;-4.472;2023-04-25T05:03:57;9.10;;;4.18;;
41709;SDS011;59402;48.396;-4.472;2023-04-25T05:07:01;10.98;;;3.92;;
41709;SDS011;59402;48.396;-4.472;2023-04-25T05:09:49;7.53;;;3.67;;
41709;SDS011;59402;48.396;-4.472;2023-04-25T05:12:36;10.57;;;4.07;;
41709;SDS011;59402;48.396;-4.472;2023-04-25T05:15:20;10.55;;;4.13;;
41709;SDS011;59402;48.396;-4.472;2023-04-25T05:18:12;9.15;;;4.18;;
41709;SDS011;59402;48.396;-4.472;2023-04-25T05:20:44;11.13;;;4.05;;
41709;SDS011;59402;48.396;-4.472;2023-04-25T05:23:36;8.38;;;3.97;;
41709;SDS011;59402;48.396;-4.472;2023-04-25T05:28:52;9.40;;;4.35;;
41709;SDS011;59402;48.396;-4.472;2023-04-25T05:31:36;8.75;;;4.20;;
41709;SDS011;59402;48.396;-4.472;2023-04-25T05:34:13;7.20;;;3.50;;
41709;SDS011;59402;48.396;-4.472;2023-04-25T05:37:00;6.07;;;3.60;;
41709;SDS011;59402;48.396;-4.472;2023-04-25T05:39:27;6.95;;;4.07;;
41709;SDS011;59402;48.396;-4.472;2023-04-25T05:42:19;8.18;;;3.92;;
41709;SDS011;59402;48.396;-4.472;2023-04-25T05:45:03;7.78;;;4.05;;
41709;SDS011;59402;48.396;-4.472;2023-04-25T05:47:45;9.63;;;4.15;;
41709;SDS011;59402;48.396;-4.472;2023-04-25T05:50:37;6.95;;;4.10;;
41709;SDS011;59402;48.396;-4.472;2023-04-25T05:53:14;6.68;;;3.65;;
41709;SDS011;59402;48.396;-4.472;2023-04-25T05:55:42;11.30;;;4.30;;
41709;SDS011;59402;48.396;-4.472;2023-04-25T05:58:19;9.38;;;4.70;;
41709;SDS011;59402;48.396;-4.472;2023-04-25T06:00:46;7.60;;;4.00;;
41709;SDS011;59402;48.396;-4.472;2023-04-25T06:03:12;8.75;;;4.55;;
41709;SDS011;59402;48.396;-4.472;2023-04-25T06:05:41;8.70;;;4.60;;
41709;SDS011;59402;48.396;-4.472;2023-04-25T06:08:07;14.27;;;5.50;;
41709;SDS011;59402;48.396;-4.472;2023-04-25T06:10:33;9.13;;;4.60;;
41709;SDS011;59402;48.396;-4.472;2023-04-25T06:12:59;10.25;;;4.70;;
41709;SDS011;59402;48.396;-4.472;2023-04-25T06:15:25;13.05;;;5.10;;
41709;SDS011;59402;48.396;-4.472;2023-04-25T06:17:51;9.15;;;4.72;;
41709;SDS011;59402;48.396;-4.472;2023-04-25T06:20:17;9.45;;;4.53;;
41709;SDS011;59402;48.396;-4.472;2023-04-25T06:22:43;9.10;;;4.70;;
41709;SDS011;59402;48.396;-4.472;2023-04-25T06:25:09;9.15;;;5.20;;
41709;SDS011;59402;48.396;-4.472;2023-04-25T06:27:34;15.82;;;4.88;;
41709;SDS011;59402;48.396;-4.472;2023-04-25T06:30:01;7.83;;;4.47;;
41709;SDS011;59402;48.396;-4.472;2023-04-25T06:32:29;10.27;;;4.88;;
41709;SDS011;59402;48.396;-4.472;2023-04-25T06:34:58;9.02;;;4.82;;
41709;SDS011;59402;48.396;-4.472;2023-04-25T06:37:23;9.25;;;4.68;;
41709;SDS011;59402;48.396;-4.472;2023-04-25T06:39:50;14.40;;;5.03;;
41709;SDS011;59402;48.396;-4.472;2023-04-25T06:42:16;10.30;;;4.80;;
41709;SDS011;59402;48.396;-4.472;2023-04-25T06:44:50;13.90;;;5.35;;
41709;SDS011;59402;48.396;-4.472;2023-04-25T06:47:17;9.82;;;5.07;;
41709;SDS011;59402;48.396;-4.472;2023-04-25T06:49:43;10.07;;;5.18;;
41709;SDS011;59402;48.396;-4.472;2023-04-25T06:52:09;11.15;;;5.22;;
41709;SDS011;59402;48.396;-4.472;2023-04-25T06:54:36;11.67;;;5.30;;
41709;SDS011;59402;48.396;-4.472;2023-04-25T06:57:16;10.10;;;4.38;;
41709;SDS011;59402;48.396;-4.472;2023-04-25T06:59:43;12.35;;;5.25;;
41709;SDS011;59402;48.396;-4.472;2023-04-25T07:02:08;9.30;;;4.93;;
41709;SDS011;59402;48.396;-4.472;2023-04-25T07:04:34;11.75;;;4.72;;
41709;SDS011;59402;48.396;-4.472;2023-04-25T07:07:01;14.57;;;5.15;;
41709;SDS011;59402;48.396;-4.472;2023-04-25T07:09:36;15.30;;;5.50;;
41709;SDS011;59402;48.396;-4.472;2023-04-25T07:12:03;10.23;;;4.90;;
41709;SDS011;59402;48.396;-4.472;2023-04-25T07:14:29;19.55;;;5.82;;
41709;SDS011;59402;48.396;-4.472;2023-04-25T07:16:56;11.77;;;4.80;;
41709;SDS011;59402;48.396;-4.472;2023-04-25T07:19:23;9.18;;;5.15;;
41709;SDS011;59402;48.396;-4.472;2023-04-25T07:21:52;12.95;;;4.88;;
41709;SDS011;59402;48.396;-4.472;2023-04-25T07:24:18;13.80;;;4.85;;
41709;SDS011;59402;48.396;-4.472;2023-04-25T07:26:46;9.05;;;4.25;;
41709;SDS011;59402;48.396;-4.472;2023-04-25T07:29:24;9.20;;;4.50;;
41709;SDS011;59402;48.396;-4.472;2023-04-25T07:31:50;11.10;;;4.47;;
41709;SDS011;59402;48.396;-4.472;2023-04-25T07:34:17;7.55;;;4.05;;
41709;SDS011;59402;48.396;-4.472;2023-04-25T07:36:43;10.50;;;4.05;;
41709;SDS011;59402;48.396;-4.472;2023-04-25T07:39:10;8.57;;;4.30;;
41709;SDS011;59402;48.396;-4.472;2023-04-25T07:41:36;9.07;;;3.92;;
41709;SDS011;59402;48.396;-4.472;2023-04-25T07:44:02;8.75;;;3.85;;
41709;SDS011;59402;48.396;-4.472;2023-04-25T07:48:55;10.90;;;4.00;;
41709;SDS011;59402;48.396;-4.472;2023-04-25T07:51:21;10.80;;;4.68;;
41709;SDS011;59402;48.396;-4.472;2023-04-25T07:53:48;12.87;;;4.50;;
41709;SDS011;59402;48.396;-4.472;2023-04-25T07:56:15;8.18;;;4.65;;
41709;SDS011;59402;48.396;-4.472;2023-04-25T07:58:43;10.20;;;3.85;;
41709;SDS011;59402;48.396;-4.472;2023-04-25T08:01:12;8.40;;;3.75;;
41709;SDS011;59402;48.396;-4.472;2023-04-25T08:03:38;9.77;;;3.65;;
41709;SDS011;59402;48.396;-4.472;2023-04-25T08:06:09;8.93;;;4.00;;
41709;SDS011;59402;48.396;-4.472;2023-04-25T08:08:44;6.88;;;3.90;;
41709;SDS011;59402;48.396;-4.472;2023-04-25T08:11:15;9.05;;;4.07;;
41709;SDS011;59402;48.396;-4.472;2023-04-25T08:13:41;11.95;;;3.83;;
41709;SDS011;59402;48.396;-4.472;2023-04-25T08:16:06;7.90;;;3.53;;
41709;SDS011;59402;48.396;-4.472;2023-04-25T08:18:33;8.35;;;3.38;;
41709;SDS011;59402;48.396;-4.472;2023-04-25T08:20:59;7.65;;;3.17;;
41709;SDS011;59402;48.396;-4.472;2023-04-25T08:23:24;8.18;;;3.13;;
41709;SDS011;59402;48.396;-4.472;2023-04-25T08:25:53;6.18;;;3.25;;
41709;SDS011;59402;48.396;-4.472;2023-04-25T08:28:23;5.40;;;2.78;;
41709;SDS011;59402;48.396;-4.472;2023-04-25T08:30:49;7.28;;;2.90;;
41709;SDS011;59402;48.396;-4.472;2023-04-25T08:33:16;7.80;;;3.20;;
41709;SDS011;59402;48.396;-4.472;2023-04-25T08:35:47;6.88;;;3.13;;
41709;SDS011;59402;48.396;-4.472;2023-04-25T08:38:14;6.80;;;3.42;;
41709;SDS011;59402;48.396;-4.472;2023-04-25T08:40:40;6.63;;;3.42;;
41709;SDS011;59402;48.396;-4.472;2023-04-25T08:43:15;5.38;;;3.08;;
41709;SDS011;59402;48.396;-4.472;2023-04-25T08:45:44;8.55;;;3.35;;
41709;SDS011;59402;48.396;-4.472;2023-04-25T08:48:23;6.90;;;3.45;;
41709;SDS011;59402;48.396;-4.472;2023-04-25T08:50:50;7.45;;;3.08;;
41709;SDS011;59402;48.396;-4.472;2023-04-25T08:55:51;9.88;;;3.33;;
41709;SDS011;59402;48.396;-4.472;2023-04-25T08:58:19;8.57;;;3.17;;
41709;SDS011;59402;48.396;-4.472;2023-04-25T09:00:45;6.57;;;3.30;;
41709;SDS011;59402;48.396;-4.472;2023-04-25T09:03:12;6.95;;;3.53;;
41709;SDS011;59402;48.396;-4.472;2023-04-25T09:05:39;7.07;;;3.20;;
41709;SDS011;59402;48.396;-4.472;2023-04-25T09:08:06;7.43;;;2.90;;
41709;SDS011;59402;48.396;-4.472;2023-04-25T09:10:32;8.25;;;3.00;;
41709;SDS011;59402;48.396;-4.472;2023-04-25T09:13:05;7.57;;;3.28;;
41709;SDS011;59402;48.396;-4.472;2023-04-25T09:16:12;5.03;;;2.63;;
41709;SDS011;59402;48.396;-4.472;2023-04-25T09:19:24;7.20;;;2.75;;
41709;SDS011;59402;48.396;-4.472;2023-04-25T09:22:02;7.18;;;3.00;;
41709;SDS011;59402;48.396;-4.472;2023-04-25T09:24:36;7.88;;;3.42;;
41709;SDS011;59402;48.396;-4.472;2023-04-25T09:27:07;7.30;;;3.05;;
41709;SDS011;59402;48.396;-4.472;2023-04-25T09:29:40;7.03;;;2.47;;
41709;SDS011;59402;48.396;-4.472;2023-04-25T09:32:15;7.40;;;3.00;;
41709;SDS011;59402;48.396;-4.472;2023-04-25T09:34:42;7.65;;;2.78;;
41709;SDS011;59402;48.396;-4.472;2023-04-25T09:37:10;7.18;;;3.28;;
41709;SDS011;59402;48.396;-4.472;2023-04-25T09:40:04;5.78;;;2.72;;
41709;SDS011;59402;48.396;-4.472;2023-04-25T09:42:33;5.70;;;2.53;;
41709;SDS011;59402;48.396;-4.472;2023-04-25T09:45:00;10.13;;;2.90;;
41709;SDS011;59402;48.396;-4.472;2023-04-25T09:47:29;5.53;;;2.53;;
41709;SDS011;59402;48.396;-4.472;2023-04-25T09:49:56;7.97;;;2.80;;
41709;SDS011;59402;48.396;-4.472;2023-04-25T09:52:24;6.70;;;3.05;;
41709;SDS011;59402;48.396;-4.472;2023-04-25T09:55:10;5.47;;;2.70;;
41709;SDS011;59402;48.396;-4.472;2023-04-25T09:57:36;7.55;;;2.90;;
41709;SDS011;59402;48.396;-4.472;2023-04-25T10:00:06;7.03;;;2.72;;
41709;SDS011;59402;48.396;-4.472;2023-04-25T10:02:40;5.20;;;2.55;;
41709;SDS011;59402;48.396;-4.472;2023-04-25T10:05:10;4.47;;;2.20;;
41709;SDS011;59402;48.396;-4.472;2023-04-25T10:07:38;5.88;;;2.85;;
41709;SDS011;59402;48.396;-4.472;2023-04-25T10:10:09;7.97;;;3.15;;
41709;SDS011;59402;48.396;-4.472;2023-04-25T10:12:38;6.50;;;3.40;;
41709;SDS011;59402;48.396;-4.472;2023-04-25T10:15:05;12.77;;;3.67;;
41709;SDS011;59402;48.396;-4.472;2023-04-25T10:19:58;8.68;;;3.30;;
41709;SDS011;59402;48.396;-4.472;2023-04-25T10:22:37;7.15;;;3.05;;
41709;SDS011;59402;48.396;-4.472;2023-04-25T10:25:04;8.07;;;3.17;;
41709;SDS011;59402;48.396;-4.472;2023-04-25T10:27:31;9.07;;;3.05;;
41709;SDS011;59402;48.396;-4.472;2023-04-25T10:30:10;8.13;;;2.88;;
41709;SDS011;59402;48.396;-4.472;2023-04-25T10:32:41;5.22;;;2.65;;
41709;SDS011;59402;48.396;-4.472;2023-04-25T10:35:49;12.55;;;3.28;;
41709;SDS011;59402;48.396;-4.472;2023-04-25T10:38:00;7.13;;;2.53;;
41709;SDS011;59402;48.396;-4.472;2023-04-25T10:40:28;6.57;;;3.03;;
41709;SDS011;59402;48.396;-4.472;2023-04-25T10:42:55;6.30;;;3.03;;
41709;SDS011;59402;48.396;-4.472;2023-04-25T10:45:21;6.95;;;2.88;;
41709;SDS011;59402;48.396;-4.472;2023-04-25T10:47:47;7.15;;;3.20;;
41709;SDS011;59402;48.396;-4.472;2023-04-25T10:50:16;5.53;;;2.55;;
41709;SDS011;59402;48.396;-4.472;2023-04-25T10:52:42;7.05;;;2.80;;
41709;SDS011;59402;48.396;-4.472;2023-04-25T10:55:09;4.43;;;2.50;;
41709;SDS011;59402;48.396;-4.472;2023-04-25T11:02:37;8.25;;;2.78;;
41709;SDS011;59402;48.396;-4.472;2023-04-25T11:05:06;8.20;;;2.65;;
41709;SDS011;59402;48.396;-4.472;2023-04-25T11:07:42;7.57;;;2.70;;
41709;SDS011;59402;48.396;-4.472;2023-04-25T11:10:14;9.65;;;2.42;;
41709;SDS011;59402;48.396;-4.472;2023-04-25T11:12:40;6.05;;;2.83;;
41709;SDS011;59402;48.396;-4.472;2023-04-25T11:15:06;7.47;;;3.03;;
41709;SDS011;59402;48.396;-4.472;2023-04-25T11:17:33;5.35;;;2.67;;
41709;SDS011;59402;48.396;-4.472;2023-04-25T11:19:59;5.45;;;2.33;;
41709;SDS011;59402;48.396;-4.472;2023-04-25T11:22:26;5.00;;;2.40;;
41709;SDS011;59402;48.396;-4.472;2023-04-25T11:24:52;6.28;;;2.10;;
41709;SDS011;59402;48.396;-4.472;2023-04-25T11:27:18;4.93;;;2.30;;
41709;SDS011;59402;48.396;-4.472;2023-04-25T11:29:44;5.35;;;2.08;;
41709;SDS011;59402;48.396;-4.472;2023-04-25T11:32:14;6.75;;;2.20;;
41709;SDS011;59402;48.396;-4.472;2023-04-25T11:34:42;6.65;;;2.30;;
41709;SDS011;59402;48.396;-4.472;2023-04-25T11:37:08;6.82;;;2.13;;
41709;SDS011;59402;48.396;-4.472;2023-04-25T11:39:34;5.63;;;2.20;;
41709;SDS011;59402;48.396;-4.472;2023-04-25T11:42:00;5.03;;;2.10;;
41709;SDS011;59402;48.396;-4.472;2023-04-25T11:44:26;6.43;;;2.40;;
41709;SDS011;59402;48.396;-4.472;2023-04-25T11:46:52;5.55;;;2.42;;
41709;SDS011;59402;48.396;-4.472;2023-04-25T11:49:17;5.57;;;2.60;;
41709;SDS011;59402;48.396;-4.472;2023-04-25T11:51:45;4.50;;;2.47;;
41709;SDS011;59402;48.396;-4.472;2023-04-25T11:54:12;5.85;;;2.17;;
41709;SDS011;59402;48.396;-4.472;2023-04-25T11:56:41;5.55;;;1.92;;
41709;SDS011;59402;48.396;-4.472;2023-04-25T11:59:07;7.55;;;2.45;;
41709;SDS011;59402;48.396;-4.472;2023-04-25T12:01:38;6.50;;;2.40;;
41709;SDS011;59402;48.396;-4.472;2023-04-25T12:04:12;5.32;;;2.10;;
41709;SDS011;59402;48.396;-4.472;2023-04-25T12:06:42;5.65;;;2.60;;
41709;SDS011;59402;48.396;-4.472;2023-04-25T12:09:11;8.85;;;2.72;;
41709;SDS011;59402;48.396;-4.472;2023-04-25T12:11:52;8.00;;;2.25;;
41709;SDS011;59402;48.396;-4.472;2023-04-25T12:14:24;5.45;;;2.22;;
41709;SDS011;59402;48.396;-4.472;2023-04-25T12:17:00;7.97;;;2.97;;
41709;SDS011;59402;48.396;-4.472;2023-04-25T12:19:31;9.25;;;2.40;;
41709;SDS011;59402;48.396;-4.472;2023-04-25T12:21:59;4.32;;;2.40;;
41709;SDS011;59402;48.396;-4.472;2023-04-25T12:24:26;5.95;;;2.25;;
41709;SDS011;59402;48.396;-4.472;2023-04-25T12:29:20;5.60;;;2.00;;
41709;SDS011;59402;48.396;-4.472;2023-04-25T12:31:47;5.75;;;2.03;;
41709;SDS011;59402;48.396;-4.472;2023-04-25T12:34:13;7.28;;;2.08;;
41709;SDS011;59402;48.396;-4.472;2023-04-25T12:36:39;7.05;;;2.50;;
41709;SDS011;59402;48.396;-4.472;2023-04-25T12:39:05;6.57;;;2.67;;
41709;SDS011;59402;48.396;-4.472;2023-04-25T12:41:32;7.10;;;2.58;;
41709;SDS011;59402;48.396;-4.472;2023-04-25T12:43:57;6.93;;;2.42;;
41709;SDS011;59402;48.396;-4.472;2023-04-25T12:46:23;4.85;;;2.47;;
41709;SDS011;59402;48.396;-4.472;2023-04-25T12:48:49;5.70;;;2.63;;
41709;SDS011;59402;48.396;-4.472;2023-04-25T12:51:15;5.05;;;2.30;;
41709;SDS011;59402;48.396;-4.472;2023-04-25T12:53:41;5.13;;;2.22;;
41709;SDS011;59402;48.396;-4.472;2023-04-25T12:56:07;5.47;;;2.70;;
41709;SDS011;59402;48.396;-4.472;2023-04-25T12:58:33;4.68;;;2.35;;
41709;SDS011;59402;48.396;-4.472;2023-04-25T13:00:59;7.40;;;2.47;;
41709;SDS011;59402;48.396;-4.472;2023-04-25T13:03:25;5.90;;;2.15;;
41709;SDS011;59402;48.396;-4.472;2023-04-25T13:05:51;5.75;;;2.30;;
41709;SDS011;59402;48.396;-4.472;2023-04-25T13:08:18;5.10;;;1.77;;
41709;SDS011;59402;48.396;-4.472;2023-04-25T13:10:44;5.53;;;1.80;;
41709;SDS011;59402;48.396;-4.472;2023-04-25T13:13:10;4.72;;;1.75;;
41709;SDS011;59402;48.396;-4.472;2023-04-25T13:15:35;5.72;;;2.28;;
41709;SDS011;59402;48.396;-4.472;2023-04-25T13:18:02;5.85;;;1.98;;
41709;SDS011;59402;48.396;-4.472;2023-04-25T13:20:29;6.88;;;1.98;;
41709;SDS011;59402;48.396;-4.472;2023-04-25T13:22:55;7.72;;;2.25;;
41709;SDS011;59402;48.396;-4.472;2023-04-25T13:25:21;4.57;;;1.85;;
41709;SDS011;59402;48.396;-4.472;2023-04-25T13:27:47;6.38;;;2.20;;
41709;SDS011;59402;48.396;-4.472;2023-04-25T13:30:13;6.00;;;2.20;;
41709;SDS011;59402;48.396;-4.472;2023-04-25T13:32:39;4.57;;;2.00;;
41709;SDS011;59402;48.396;-4.472;2023-04-25T13:35:06;7.28;;;2.47;;
41709;SDS011;59402;48.396;-4.472;2023-04-25T13:37:36;6.93;;;3.00;;
41709;SDS011;59402;48.396;-4.472;2023-04-25T13:40:03;4.55;;;2.55;;
41709;SDS011;59402;48.396;-4.472;2023-04-25T13:42:30;6.68;;;2.58;;
41709;SDS011;59402;48.396;-4.472;2023-04-25T13:44:57;6.55;;;3.00;;
41709;SDS011;59402;48.396;-4.472;2023-04-25T13:47:22;7.75;;;2.80;;
41709;SDS011;59402;48.396;-4.472;2023-04-25T13:49:49;9.10;;;2.83;;
41709;SDS011;59402;48.396;-4.472;2023-04-25T13:52:15;8.68;;;3.60;;
41709;SDS011;59402;48.396;-4.472;2023-04-25T13:54:41;8.57;;;3.88;;
41709;SDS011;59402;48.396;-4.472;2023-04-25T13:57:07;7.35;;;3.75;;
41709;SDS011;59402;48.396;-4.472;2023-04-25T13:59:32;9.35;;;3.30;;
41709;SDS011;59402;48.396;-4.472;2023-04-25T14:01:58;12.52;;;3.75;;
41709;SDS011;59402;48.396;-4.472;2023-04-25T14:04:24;10.88;;;3.58;;
41709;SDS011;59402;48.396;-4.472;2023-04-25T14:06:50;7.03;;;2.67;;
41709;SDS011;59402;48.396;-4.472;2023-04-25T14:09:16;5.35;;;2.70;;
41709;SDS011;59402;48.396;-4.472;2023-04-25T14:11:43;10.82;;;3.20;;
41709;SDS011;59402;48.396;-4.472;2023-04-25T14:14:09;7.78;;;3.00;;
41709;SDS011;59402;48.396;-4.472;2023-04-25T14:16:35;7.72;;;2.95;;
41709;SDS011;59402;48.396;-4.472;2023-04-25T14:19:01;6.72;;;3.08;;
41709;SDS011;59402;48.396;-4.472;2023-04-25T14:21:27;6.20;;;3.05;;
41709;SDS011;59402;48.396;-4.472;2023-04-25T14:23:56;9.40;;;3.40;;
41709;SDS011;59402;48.396;-4.472;2023-04-25T14:26:22;9.57;;;3.65;;
41709;SDS011;59402;48.396;-4.472;2023-04-25T14:28:48;9.48;;;3.90;;
41709;SDS011;59402;48.396;-4.472;2023-04-25T14:31:14;6.43;;;2.90;;
41709;SDS011;59402;48.396;-4.472;2023-04-25T14:33:39;6.57;;;2.67;;
41709;SDS011;59402;48.396;-4.472;2023-04-25T14:36:07;7.53;;;3.22;;
41709;SDS011;59402;48.396;-4.472;2023-04-25T14:38:33;7.47;;;3.22;;
41709;SDS011;59402;48.396;-4.472;2023-04-25T14:40:59;9.15;;;3.10;;
41709;SDS011;59402;48.396;-4.472;2023-04-25T14:43:25;11.60;;;3.25;;
41709;SDS011;59402;48.396;-4.472;2023-04-25T14:45:51;7.32;;;2.85;;
41709;SDS011;59402;48.396;-4.472;2023-04-25T14:48:17;7.22;;;3.20;;
41709;SDS011;59402;48.396;-4.472;2023-04-25T14:50:44;10.45;;;2.92;;
41709;SDS011;59402;48.396;-4.472;2023-04-25T14:53:11;7.13;;;2.80;;
41709;SDS011;59402;48.396;-4.472;2023-04-25T14:55:37;5.85;;;2.53;;
41709;SDS011;59402;48.396;-4.472;2023-04-25T14:58:03;7.22;;;2.50;;
41709;SDS011;59402;48.396;-4.472;2023-04-25T15:00:28;9.15;;;2.88;;
41709;SDS011;59402;48.396;-4.472;2023-04-25T15:02:55;8.63;;;2.60;;